Time;durP1;ratioP1;P1;durP2;ratioP2;P2;SDS_P1;SDS_P2;PMS_P1;PMS_P2;Temp;Humidity;BMP_temperature;BMP_pressure;BME280_temperature;BME280_humidity;BME280_pressure;Samples;Min_cycle;Max_cycle;Signal;HPM_P1;HPM_P2
2024/03/14 00:06:37;;;;;;;;;;;;;;;;;;5015762;28;20303;-58
2024/03/14 00:09:03;;;;;;;;;;;;;;;;;;5015794;28;19964;-60
2024/03/14 00:11:32;;;;;;;;;;;;;;;;;;5015747;28;20275;-60
2024/03/14 00:13:58;;;;;;;;;;;;;;;;;;5015464;28;20299;-60
2024/03/14 00:16:25;;;;;;;;;;;;;;;;;;5015587;28;20004;-60
2024/03/14 00:18:52;;;;;;;;;;;;;;;;;;5015837;28;19909;-60
2024/03/14 00:21:20;;;;;;;;;;;;;;;;;;5014292;28;19909;-59
2024/03/14 00:23:46;;;;;;;;;;;;;;;;;;5015438;28;19909;-60
2024/03/14 00:26:13;;;;;;;;;;;;;;;;;;5015402;28;19948;-59
2024/03/14 00:28:39;;;;;;;;;;;;;;;;;;5015562;28;20017;-59
2024/03/14 00:31:05;;;;;;;;;;;;;;;;;;5015519;28;19910;-60
2024/03/14 00:33:31;;;;;;;;;;;;;;;;;;5015259;28;19920;-60
2024/03/14 00:35:57;;;;;;;;;;;;;;;;;;5013965;28;19910;-60
2024/03/14 00:38:23;;;;;;;;;;;;;;;;;;5014167;28;19916;-60
2024/03/14 00:40:49;;;;;;;;;;;;;;;;;;5015158;28;20390;-60
2024/03/14 00:43:16;;;;;;;;;;;;;;;;;;5015119;28;19917;-60
2024/03/14 00:45:43;;;;;;;;;;;;;;;;;;5012863;28;20312;-60
2024/03/14 00:48:10;;;;;;;;;;;;;;;;;;5013055;28;19909;-60
2024/03/14 00:50:36;;;;;;;;;;;;;;;;;;5014169;28;19909;-59
2024/03/14 00:53:02;;;;;;;;;;;;;;;;;;5014886;28;19999;-58
2024/03/14 00:55:29;;;;;;;;;;;;;;;;;;5014722;28;19916;-59
2024/03/14 00:57:55;;;;;;;;;;;;;;;;;;5014313;28;19913;-60
2024/03/14 01:00:23;;;;;;;;;;;;;;;;;;5014878;28;20000;-59
2024/03/14 01:02:49;;;;;;;;;;;;;;;;;;5013772;28;20405;-60
2024/03/14 01:05:15;;;;;;;;;;;;;;;;;;5014568;28;19913;-59
2024/03/14 01:07:45;;;;;;;;;;;;;;;;;;5014765;28;19909;-60
2024/03/14 01:10:11;;;;;;;;;;;;;;;;;;5014478;28;20000;-60
2024/03/14 01:12:37;;;;;;;;;;;;;;;;;;5014628;28;19910;-60
2024/03/14 01:15:06;;;;;;;;;;;;;;;;;;5013646;28;20297;-60
2024/03/14 01:17:32;;;;;;;;;;;;;;;;;;5014534;28;19909;-60
2024/03/14 01:19:58;;;;;;;;;;;;;;;;;;5014499;28;19937;-59
2024/03/14 01:22:24;;;;;;;;;;;;;;;;;;5013261;28;20386;-60
2024/03/14 01:24:50;;;;;;;;;;;;;;;;;;5014409;28;19924;-60
2024/03/14 01:27:18;;;;;;;;;;;;;;;;;;5014310;28;19909;-60
2024/03/14 01:29:45;;;;;;;;;;;;;;;;;;5014377;28;19909;-59
2024/03/14 01:32:11;;;;;;;;;;;;;;;;;;5014275;28;20026;-59
2024/03/14 01:34:37;;;;;;;;;;;;;;;;;;5014246;28;19909;-59
2024/03/14 01:37:06;;;;;;;;;;;;;;;;;;5014130;28;19909;-59
2024/03/14 01:39:32;;;;;;;;;;;;;;;;;;5014126;28;19919;-59
2024/03/14 01:41:58;;;;;;;;;;;;;;;;;;5014166;28;19909;-60
2024/03/14 01:44:24;;;;;;;;;;;;;;;;;;5014073;28;19914;-59
2024/03/14 01:46:50;;;;;;;;;;;;;;;;;;5013924;28;19910;-59
2024/03/14 01:49:16;;;;;;;;;;;;;;;;;;5013985;28;20295;-59
2024/03/14 01:51:44;;;;;;;;;;;;;;;;;;5013751;28;19909;-59
2024/03/14 01:54:12;;;;;;;;;;;;;;;;;;5014200;28;20283;-60
2024/03/14 01:56:47;;;;;;;;;;;;;;;;;;5013678;28;19952;-57
2024/03/14 01:59:13;;;;;;;;;;;;;;;;;;5013967;28;19939;-58
2024/03/14 02:01:40;;;;;;;;;;;;;;;;;;5013612;28;19980;-60
2024/03/14 02:04:07;;;;;;;;;;;;;;;;;;5013613;28;19913;-60
2024/03/14 02:06:33;;;;;;;;;;;;;;;;;;5012158;28;19988;-59
2024/03/14 02:08:59;;;;;;;;;;;;;;;;;;5013676;28;19909;-59
2024/03/14 02:11:25;;;;;;;;;;;;;;;;;;5013625;28;20150;-58
2024/03/14 02:13:51;;;;;;;;;;;;;;;;;;5013616;28;20222;-59
2024/03/14 02:16:17;;;;;;;;;;;;;;;;;;5012092;28;19909;-59
2024/03/14 02:18:45;;;;;;;;;;;;;;;;;;5013392;28;20351;-58
2024/03/14 02:21:12;;;;;;;;;;;;;;;;;;5013000;28;19913;-58
2024/03/14 02:23:38;;;;;;;;;;;;;;;;;;5013012;28;19909;-61
2024/03/14 02:26:06;;;;;;;;;;;;;;;;;;5013343;28;19920;-62
2024/03/14 02:28:33;;;;;;;;;;;;;;;;;;5012136;28;19996;-62
2024/03/14 02:30:59;;;;;;;;;;;;;;;;;;5013192;28;19914;-62
2024/03/14 02:33:25;;;;;;;;;;;;;;;;;;5013017;28;19918;-62
2024/03/14 02:35:51;;;;;;;;;;;;;;;;;;5011722;28;20277;-63
2024/03/14 02:38:17;;;;;;;;;;;;;;;;;;5013229;28;19914;-63
2024/03/14 02:40:43;;;;;;;;;;;;;;;;;;5013104;28;19913;-62
2024/03/14 02:43:09;;;;;;;;;;;;;;;;;;5013011;28;20491;-63
2024/03/14 02:45:36;;;;;;;;;;;;;;;;;;5012704;28;19967;-61
2024/03/14 02:48:04;;;;;;;;;;;;;;;;;;5011648;28;19910;-62
2024/03/14 02:50:30;;;;;;;;;;;;;;;;;;5011576;28;19913;-61
2024/03/14 02:52:57;;;;;;;;;;;;;;;;;;5012803;28;20340;-62
2024/03/14 02:55:23;;;;;;;;;;;;;;;;;;5011358;28;20331;-61
2024/03/14 02:57:49;;;;;;;;;;;;;;;;;;5012776;28;19956;-62
2024/03/14 03:00:16;;;;;;;;;;;;;;;;;;5012576;28;20302;-61
2024/03/14 03:02:44;;;;;;;;;;;;;;;;;;5011441;28;20346;-62
2024/03/14 03:05:10;;;;;;;;;;;;;;;;;;5012517;28;19917;-62
2024/03/14 03:07:37;;;;;;;;;;;;;;;;;;5012716;28;19945;-61
2024/03/14 03:10:05;;;;;;;;;;;;;;;;;;5011293;28;20012;-61
2024/03/14 03:12:31;;;;;;;;;;;;;;;;;;5012436;28;19916;-63
2024/03/14 03:14:58;;;;;;;;;;;;;;;;;;5012411;28;19917;-61
2024/03/14 03:17:24;;;;;;;;;;;;;;;;;;5011137;28;20303;-62
2024/03/14 03:19:50;;;;;;;;;;;;;;;;;;5012527;28;19972;-60
2024/03/14 03:22:16;;;;;;;;;;;;;;;;;;5012468;28;20337;-60
2024/03/14 03:24:42;;;;;;;;;;;;;;;;;;5012335;28;19920;-61
2024/03/14 03:27:13;;;;;;;;;;;;;;;;;;5012266;28;19909;-61
2024/03/14 03:29:39;;;;;;;;;;;;;;;;;;5012240;28;20404;-62
2024/03/14 03:32:05;;;;;;;;;;;;;;;;;;5012203;28;19924;-62
2024/03/14 03:34:32;;;;;;;;;;;;;;;;;;5010656;28;20299;-62
2024/03/14 03:36:59;;;;;;;;;;;;;;;;;;5012198;28;19916;-57
2024/03/14 03:39:25;;;;;;;;;;;;;;;;;;5012221;28;19913;-60
2024/03/14 03:41:52;;;;;;;;;;;;;;;;;;5012115;28;19917;-57
2024/03/14 03:44:20;;;;;;;;;;;;;;;;;;5012066;28;19914;-59
2024/03/14 03:46:46;;;;;;;;;;;;;;;;;;5012211;28;19944;-60
2024/03/14 03:49:12;;;;;;;;;;;;;;;;;;5012237;28;19909;-59
2024/03/14 03:51:39;;;;;;;;;;;;;;;;;;5012076;28;20008;-58
2024/03/14 03:54:05;;;;;;;;;;;;;;;;;;5010885;28;19964;-58
2024/03/14 03:56:31;;;;;;;;;;;;;;;;;;5011872;28;19909;-60
2024/03/14 03:58:58;;;;;;;;;;;;;;;;;;5011764;28;20303;-59
2024/03/14 04:01:24;;;;;;;;;;;;;;;;;;5000637;28;19945;-60
2024/03/14 04:03:51;;;;;;;;;;;;;;;;;;4990613;28;19964;-59
2024/03/14 04:06:18;;;;;;;;;;;;;;;;;;4995279;28;19917;-60
2024/03/14 04:08:47;;;;;;;;;;;;;;;;;;5012032;28;19921;-60
2024/03/14 04:11:15;;;;;;;;;;;;;;;;;;5005556;28;19910;-60
2024/03/14 04:13:41;;;;;;;;;;;;;;;;;;4992054;28;19921;-59
2024/03/14 04:16:07;;;;;;;;;;;;;;;;;;5002659;28;20042;-60
2024/03/14 04:18:34;;;;;;;;;;;;;;;;;;4992359;28;19995;-60
2024/03/14 04:21:02;;;;;;;;;;;;;;;;;;4992292;28;19917;-60
2024/03/14 04:23:28;;;;;;;;;;;;;;;;;;4992249;28;19932;-61
2024/03/14 04:25:56;;;;;;;;;;;;;;;;;;4991995;28;20134;-58
2024/03/14 04:28:25;;;;;;;;;;;;;;;;;;4992166;28;19917;-60
2024/03/14 04:30:51;;;;;;;;;;;;;;;;;;4998355;28;19909;-60
2024/03/14 04:33:18;;;;;;;;;;;;;;;;;;5006994;28;20355;-59
2024/03/14 04:35:44;;;;;;;;;;;;;;;;;;4997031;28;20009;-61
2024/03/14 04:38:10;;;;;;;;;;;;;;;;;;5011625;28;19933;-61
2024/03/14 04:40:38;;;;;;;;;;;;;;;;;;5008820;28;19968;-60
2024/03/14 04:43:04;;;;;;;;;;;;;;;;;;5011335;28;20457;-60
2024/03/14 04:45:30;;;;;;;;;;;;;;;;;;5009551;28;19913;-59
2024/03/14 04:47:56;;;;;;;;;;;;;;;;;;4978073;28;19913;-60
2024/03/14 04:50:23;;;;;;;;;;;;;;;;;;5004092;28;20020;-61
2024/03/14 04:52:49;;;;;;;;;;;;;;;;;;4995324;28;20339;-59
2024/03/14 04:55:17;;;;;;;;;;;;;;;;;;5012291;28;19921;-63
2024/03/14 04:57:46;;;;;;;;;;;;;;;;;;5011179;28;20370;-63
2024/03/14 05:02:44;;;;;;;;;;;;;;;;;;5014462;28;19913;-61
2024/03/14 05:05:10;;;;;;;;;;;;;;;;;;5014667;28;20000;-61
2024/03/14 05:07:36;;;;;;;;;;;;;;;;;;5014793;28;19925;-61
2024/03/14 05:10:02;;;;;;;;;;;;;;;;;;5014791;28;20375;-61
2024/03/14 05:12:29;;;;;;;;;;;;;;;;;;5014614;28;19910;-61
2024/03/14 05:14:55;;;;;;;;;;;;;;;;;;5014722;28;19914;-61
2024/03/14 05:17:21;;;;;;;;;;;;;;;;;;5013462;28;20356;-61
2024/03/14 05:19:47;;;;;;;;;;;;;;;;;;5014585;28;19910;-61
2024/03/14 05:22:13;;;;;;;;;;;;;;;;;;5014484;28;19920;-61
2024/03/14 05:24:39;;;;;;;;;;;;;;;;;;5014645;28;19913;-61
2024/03/14 05:27:05;;;;;;;;;;;;;;;;;;5014273;28;19920;-60
2024/03/14 05:29:31;;;;;;;;;;;;;;;;;;5014105;28;19910;-61
2024/03/14 05:31:57;;;;;;;;;;;;;;;;;;5020005;23;19909;-60
2024/03/14 05:34:23;;;;;;;;;;;;;;;;;;5011156;28;19917;-61
2024/03/14 05:36:50;;;;;;;;;;;;;;;;;;5012058;28;19909;-60
2024/03/14 05:39:16;;;;;;;;;;;;;;;;;;5012544;28;20298;-60
2024/03/14 05:41:42;;;;;;;;;;;;;;;;;;5013056;28;19910;-60
2024/03/14 05:44:08;;;;;;;;;;;;;;;;;;5012082;28;19917;-60
2024/03/14 05:46:35;;;;;;;;;;;;;;;;;;5013684;28;19920;-59
2024/03/14 05:49:03;;;;;;;;;;;;;;;;;;5014130;28;20387;-60
2024/03/14 05:51:29;;;;;;;;;;;;;;;;;;5014018;28;20024;-60
2024/03/14 05:53:55;;;;;;;;;;;;;;;;;;5013995;28;20391;-60
2024/03/14 05:56:21;;;;;;;;;;;;;;;;;;5012924;28;20341;-61
2024/03/14 05:58:48;;;;;;;;;;;;;;;;;;5014107;28;19909;-60
2024/03/14 06:01:14;;;;;;;;;;;;;;;;;;5012521;28;19909;-60
2024/03/14 06:03:45;;;;;;;;;;;;;;;;;;5013612;28;19909;-61
2024/03/14 06:06:13;;;;;;;;;;;;;;;;;;5013653;28;19913;-60
2024/03/14 06:08:42;;;;;;;;;;;;;;;;;;5012525;28;19905;-60
2024/03/14 06:11:08;;;;;;;;;;;;;;;;;;5012472;28;19918;-60
2024/03/14 06:13:34;;;;;;;;;;;;;;;;;;5013438;28;20000;-60
2024/03/14 06:16:00;;;;;;;;;;;;;;;;;;5013448;28;20358;-60
2024/03/14 06:18:26;;;;;;;;;;;;;;;;;;5012656;28;20287;-60
2024/03/14 06:20:54;;;;;;;;;;;;;;;;;;5013557;28;20310;-60
2024/03/14 06:23:20;;;;;;;;;;;;;;;;;;5013508;28;19906;-60
2024/03/14 06:25:46;;;;;;;;;;;;;;;;;;5013219;28;19921;-60
2024/03/14 06:28:12;;;;;;;;;;;;;;;;;;5013398;28;19956;-60
2024/03/14 06:30:38;;;;;;;;;;;;;;;;;;5013355;28;19909;-60
2024/03/14 06:33:04;;;;;;;;;;;;;;;;;;5013099;28;19971;-61
2024/03/14 06:35:31;;;;;;;;;;;;;;;;;;5011900;28;20004;-61
2024/03/14 06:37:59;;;;;;;;;;;;;;;;;;5013468;28;19909;-61
2024/03/14 06:40:25;;;;;;;;;;;;;;;;;;5011872;28;19913;-60
2024/03/14 06:42:53;;;;;;;;;;;;;;;;;;5011905;28;19980;-60
2024/03/14 06:45:19;;;;;;;;;;;;;;;;;;5011791;28;20307;-61
2024/03/14 06:47:45;;;;;;;;;;;;;;;;;;5013099;28;19913;-61
2024/03/14 06:50:12;;;;;;;;;;;;;;;;;;5011783;28;19909;-61
2024/03/14 06:52:38;;;;;;;;;;;;;;;;;;5013007;28;19909;-61
2024/03/14 06:55:05;;;;;;;;;;;;;;;;;;5013018;28;19920;-61
2024/03/14 06:57:31;;;;;;;;;;;;;;;;;;5011489;28;20335;-54
2024/03/14 06:59:58;;;;;;;;;;;;;;;;;;5011465;28;19909;-51
2024/03/14 07:02:25;;;;;;;;;;;;;;;;;;5007612;28;20580;-52
2024/03/14 07:04:52;;;;;;;;;;;;;;;;;;5001737;28;19941;-52
2024/03/14 07:07:18;;;;;;;;;;;;;;;;;;4992884;28;20388;-52
2024/03/14 07:09:45;;;;;;;;;;;;;;;;;;4992954;28;19914;-55
2024/03/14 07:12:11;;;;;;;;;;;;;;;;;;4992920;28;20296;-59
2024/03/14 07:14:38;;;;;;;;;;;;;;;;;;4993020;28;19991;-57
2024/03/14 07:17:04;;;;;;;;;;;;;;;;;;4992904;28;20032;-57
2024/03/14 07:19:30;;;;;;;;;;;;;;;;;;4993044;28;19909;-58
2024/03/14 07:21:59;;;;;;;;;;;;;;;;;;4975453;28;19906;-58
2024/03/14 07:24:25;;;;;;;;;;;;;;;;;;4992785;28;19917;-60
2024/03/14 07:26:53;;;;;;;;;;;;;;;;;;4992867;28;19914;-60
2024/03/14 07:29:19;;;;;;;;;;;;;;;;;;4992971;28;19910;-60
2024/03/14 07:31:51;;;;;;;;;;;;;;;;;;4992380;28;19928;-58
2024/03/14 07:34:18;;;;;;;;;;;;;;;;;;5012505;28;19920;-62
2024/03/14 07:36:45;;;;;;;;;;;;;;;;;;5012391;28;19909;-61
2024/03/14 07:39:14;;;;;;;;;;;;;;;;;;5012314;28;20005;-61
2024/03/14 07:41:41;;;;;;;;;;;;;;;;;;5011071;28;19905;-61
2024/03/14 07:44:07;;;;;;;;;;;;;;;;;;5012162;28;20298;-61
2024/03/14 07:46:33;;;;;;;;;;;;;;;;;;5010927;28;19936;-61
2024/03/14 07:48:59;;;;;;;;;;;;;;;;;;5011015;28;19909;-61
2024/03/14 07:51:26;;;;;;;;;;;;;;;;;;5012420;28;19913;-60
2024/03/14 07:53:52;;;;;;;;;;;;;;;;;;5012099;28;19916;-61
2024/03/14 07:56:18;;;;;;;;;;;;;;;;;;5012065;28;19909;-60
2024/03/14 07:58:46;;;;;;;;;;;;;;;;;;5012322;28;19910;-60
2024/03/14 08:01:15;;;;;;;;;;;;;;;;;;5012336;28;19910;-59
2024/03/14 08:03:42;;;;;;;;;;;;;;;;;;4994568;28;20279;-60
2024/03/14 08:06:10;;;;;;;;;;;;;;;;;;5011908;28;19913;-61
2024/03/14 08:08:36;;;;;;;;;;;;;;;;;;5012048;28;19914;-61
2024/03/14 08:11:03;;;;;;;;;;;;;;;;;;5012019;28;19909;-61
2024/03/14 08:13:31;;;;;;;;;;;;;;;;;;5012051;28;19992;-61
2024/03/14 08:16:08;;;;;;;;;;;;;;;;;;5010775;28;19916;-54
2024/03/14 08:18:38;;;;;;;;;;;;;;;;;;5012027;28;19909;-61
2024/03/14 08:21:05;;;;;;;;;;;;;;;;;;5013310;28;19948;-61
2024/03/14 08:23:33;;;;;;;;;;;;;;;;;;5015618;28;19910;-61
2024/03/14 08:25:59;;;;;;;;;;;;;;;;;;5015558;28;20016;-61
2024/03/14 08:28:25;;;;;;;;;;;;;;;;;;5015680;28;19913;-62
2024/03/14 08:30:51;;;;;;;;;;;;;;;;;;5014336;28;19909;-62
2024/03/14 08:33:17;;;;;;;;;;;;;;;;;;5015352;28;20008;-61
2024/03/14 08:35:43;;;;;;;;;;;;;;;;;;5015479;28;19913;-62
2024/03/14 08:38:13;;;;;;;;;;;;;;;;;;5015640;28;19909;-61
2024/03/14 08:40:39;;;;;;;;;;;;;;;;;;5015607;28;19909;-61
2024/03/14 08:43:05;;;;;;;;;;;;;;;;;;5015453;28;20287;-61
2024/03/14 08:45:35;;;;;;;;;;;;;;;;;;5015187;28;19913;-61
2024/03/14 08:48:01;;;;;;;;;;;;;;;;;;5015293;28;19992;-61
2024/03/14 08:50:27;;;;;;;;;;;;;;;;;;5013861;28;19984;-61
2024/03/14 08:52:55;;;;;;;;;;;;;;;;;;5015262;28;19916;-61
2024/03/14 08:55:25;;;;;;;;;;;;;;;;;;5015017;28;19955;-61
2024/03/14 08:57:51;;;;;;;;;;;;;;;;;;5015170;28;19963;-61
2024/03/14 09:00:17;;;;;;;;;;;;;;;;;;5013694;28;19932;-61
2024/03/14 09:02:43;;;;;;;;;;;;;;;;;;5014945;28;20008;-62
2024/03/14 09:05:14;;;;;;;;;;;;;;;;;;5013272;28;20366;-62
2024/03/14 09:07:40;;;;;;;;;;;;;;;;;;5013606;28;19909;-61
2024/03/14 09:10:15;;;;;;;;;;;;;;;;;;5013601;28;19956;-61
2024/03/14 09:12:43;;;;;;;;;;;;;;;;;;5014798;28;19909;-61
2024/03/14 09:15:09;;;;;;;;;;;;;;;;;;5014610;28;19905;-61
2024/03/14 09:17:36;;;;;;;;;;;;;;;;;;5013544;28;20434;-61
2024/03/14 09:20:06;;;;;;;;;;;;;;;;;;5013503;28;19909;-61
2024/03/14 09:22:32;;;;;;;;;;;;;;;;;;5014541;28;19978;-61
2024/03/14 09:25:01;;;;;;;;;;;;;;;;;;5013262;28;19909;-62
2024/03/14 09:27:27;;;;;;;;;;;;;;;;;;5013035;28;19916;-61
2024/03/14 09:29:57;;;;;;;;;;;;;;;;;;5014639;28;19909;-61
2024/03/14 09:32:25;;;;;;;;;;;;;;;;;;5013548;28;19909;-61
2024/03/14 09:34:51;;;;;;;;;;;;;;;;;;5013828;28;19913;-61
2024/03/14 09:37:18;;;;;;;;;;;;;;;;;;5014198;28;19955;-61
2024/03/14 09:39:45;;;;;;;;;;;;;;;;;;5013052;28;19917;-61
2024/03/14 09:42:11;;;;;;;;;;;;;;;;;;5014057;28;19953;-61
2024/03/14 09:44:37;;;;;;;;;;;;;;;;;;5014093;28;19983;-61
2024/03/14 09:47:05;;;;;;;;;;;;;;;;;;5013975;28;19905;-61
2024/03/14 09:49:32;;;;;;;;;;;;;;;;;;5014121;28;20422;-61
2024/03/14 09:51:58;;;;;;;;;;;;;;;;;;5012768;28;19951;-62
2024/03/14 09:54:26;;;;;;;;;;;;;;;;;;5014091;28;19971;-62
2024/03/14 09:56:52;;;;;;;;;;;;;;;;;;5013776;28;19905;-62
2024/03/14 09:59:18;;;;;;;;;;;;;;;;;;5013891;28;20384;-61
2024/03/14 10:01:46;;;;;;;;;;;;;;;;;;5013770;28;19910;-61
2024/03/14 10:04:12;;;;;;;;;;;;;;;;;;5013694;28;19913;-62
2024/03/14 10:06:40;;;;;;;;;;;;;;;;;;5013722;28;19967;-61
2024/03/14 10:09:11;;;;;;;;;;;;;;;;;;5013669;28;19909;-61
2024/03/14 10:11:38;;;;;;;;;;;;;;;;;;5013620;28;19909;-62
2024/03/14 10:14:06;;;;;;;;;;;;;;;;;;5013529;28;20296;-61
2024/03/14 10:16:33;;;;;;;;;;;;;;;;;;5013443;28;19911;-61
2024/03/14 10:18:59;;;;;;;;;;;;;;;;;;4995909;28;19909;-62
2024/03/14 10:21:25;;;;;;;;;;;;;;;;;;5013473;28;19914;-61
2024/03/14 10:23:51;;;;;;;;;;;;;;;;;;5013229;28;20383;-61
2024/03/14 10:26:17;;;;;;;;;;;;;;;;;;5013208;28;19920;-61
2024/03/14 10:28:45;;;;;;;;;;;;;;;;;;5013342;28;19917;-61
2024/03/14 10:31:11;;;;;;;;;;;;;;;;;;5012045;28;19959;-61
2024/03/14 10:33:37;;;;;;;;;;;;;;;;;;5013255;28;20290;-61
2024/03/14 10:36:03;;;;;;;;;;;;;;;;;;5013012;28;19956;-61
2024/03/14 10:38:35;;;;;;;;;;;;;;;;;;5013145;28;19963;-61
2024/03/14 10:41:02;;;;;;;;;;;;;;;;;;5013182;28;19909;-61
2024/03/14 10:43:28;;;;;;;;;;;;;;;;;;5012573;28;20359;-61
2024/03/14 10:45:54;;;;;;;;;;;;;;;;;;5012889;28;19913;-61
2024/03/14 10:48:22;;;;;;;;;;;;;;;;;;5012986;28;20451;-61
2024/03/14 10:50:48;;;;;;;;;;;;;;;;;;5012835;28;19909;-61
2024/03/14 10:53:15;;;;;;;;;;;;;;;;;;5012898;28;20375;-62
2024/03/14 10:55:41;;;;;;;;;;;;;;;;;;5012848;28;20295;-62
2024/03/14 10:58:07;;;;;;;;;;;;;;;;;;5012857;28;19956;-61
2024/03/14 11:00:34;;;;;;;;;;;;;;;;;;5011631;28;20395;-61
2024/03/14 11:03:00;;;;;;;;;;;;;;;;;;5012731;28;19956;-61
2024/03/14 11:05:26;;;;;;;;;;;;;;;;;;5011156;28;19913;-61
2024/03/14 11:07:52;;;;;;;;;;;;;;;;;;5011415;28;20367;-61
2024/03/14 11:10:18;;;;;;;;;;;;;;;;;;5012763;28;19909;-62
2024/03/14 11:12:47;;;;;;;;;;;;;;;;;;5012562;28;19905;-62
2024/03/14 11:15:13;;;;;;;;;;;;;;;;;;5011350;28;19979;-62
2024/03/14 11:17:40;;;;;;;;;;;;;;;;;;5006867;28;20352;-62
2024/03/14 11:20:09;;;;;;;;;;;;;;;;;;5014485;28;19913;-62
2024/03/14 11:22:37;;;;;;;;;;;;;;;;;;5008823;28;19952;-61
2024/03/14 11:25:03;;;;;;;;;;;;;;;;;;5010480;28;19913;-62
2024/03/14 11:27:29;;;;;;;;;;;;;;;;;;5011236;28;19983;-62
2024/03/14 11:30:00;;;;;;;;;;;;;;;;;;5010632;28;20391;-63
2024/03/14 11:32:33;;;;;;;;;;;;;;;;;;5034278;23;19929;-59
2024/03/14 11:34:59;;;;;;;;;;;;;;;;;;5007836;28;19913;-59
2024/03/14 11:37:26;;;;;;;;;;;;;;;;;;4999164;28;19913;-59
2024/03/14 11:39:53;;;;;;;;;;;;;;;;;;5010207;28;19975;-59
2024/03/14 11:42:21;;;;;;;;;;;;;;;;;;5008000;28;19917;-57
2024/03/14 11:44:47;;;;;;;;;;;;;;;;;;5006549;28;19983;-57
2024/03/14 11:47:19;;;;;;;;;;;;;;;;;;4992941;28;20347;-59
2024/03/14 11:49:46;;;;;;;;;;;;;;;;;;4991007;28;19917;-54
2024/03/14 11:52:15;;;;;;;;;;;;;;;;;;5002983;28;19913;-59
2024/03/14 11:54:41;;;;;;;;;;;;;;;;;;4998034;28;19973;-59
2024/03/14 11:57:08;;;;;;;;;;;;;;;;;;5012031;28;20003;-57
2024/03/14 11:59:38;;;;;;;;;;;;;;;;;;4994746;28;20387;-58
2024/03/14 12:02:04;;;;;;;;;;;;;;;;;;4990784;28;20581;-59
2024/03/14 12:04:30;;;;;;;;;;;;;;;;;;4997257;28;19920;-53
2024/03/14 12:06:58;;;;;;;;;;;;;;;;;;4994756;28;19917;-53
2024/03/14 12:09:25;;;;;;;;;;;;;;;;;;4996884;28;20432;-55
2024/03/14 12:11:51;;;;;;;;;;;;;;;;;;5008223;28;19953;-49
2024/03/14 12:14:18;;;;;;;;;;;;;;;;;;5013603;28;20283;-50
2024/03/14 12:16:45;;;;;;;;;;;;;;;;;;4999293;28;19983;-56
2024/03/14 12:19:12;;;;;;;;;;;;;;;;;;4994450;28;19913;-59
2024/03/14 12:21:39;;;;;;;;;;;;;;;;;;4995472;28;20296;-58
2024/03/14 12:24:05;;;;;;;;;;;;;;;;;;5001795;28;20535;-58
2024/03/14 12:26:34;;;;;;;;;;;;;;;;;;5012224;28;19978;-59
2024/03/14 12:29:01;;;;;;;;;;;;;;;;;;5012893;28;19920;-59
2024/03/14 12:31:29;;;;;;;;;;;;;;;;;;5008874;28;20361;-58
2024/03/14 12:33:58;;;;;;;;;;;;;;;;;;5013770;28;19917;-59
2024/03/14 12:36:24;;;;;;;;;;;;;;;;;;5006382;28;19914;-59
2024/03/14 12:38:50;;;;;;;;;;;;;;;;;;4995095;28;20530;-58
2024/03/14 12:41:17;;;;;;;;;;;;;;;;;;4999362;28;20004;-58
2024/03/14 12:43:43;;;;;;;;;;;;;;;;;;5012703;28;19913;-58
2024/03/14 12:46:10;;;;;;;;;;;;;;;;;;5004867;28;20425;-58
2024/03/14 12:48:36;;;;;;;;;;;;;;;;;;4976901;28;19997;-58
2024/03/14 12:51:02;;;;;;;;;;;;;;;;;;4992933;28;19905;-56
2024/03/14 12:53:31;;;;;;;;;;;;;;;;;;5012356;28;19937;-59
2024/03/14 12:55:58;;;;;;;;;;;;;;;;;;5010640;28;19913;-59
2024/03/14 12:58:25;;;;;;;;;;;;;;;;;;5013494;28;19913;-59
2024/03/14 13:00:52;;;;;;;;;;;;;;;;;;5003303;28;19920;-59
2024/03/14 13:03:18;;;;;;;;;;;;;;;;;;5013478;28;20376;-58
2024/03/14 13:05:44;;;;;;;;;;;;;;;;;;5007066;28;20400;-60
2024/03/14 13:08:10;;;;;;;;;;;;;;;;;;4992460;28;19913;-59
2024/03/14 13:10:37;;;;;;;;;;;;;;;;;;4993561;28;19956;-59
2024/03/14 13:13:04;;;;;;;;;;;;;;;;;;4993968;28;20004;-60
2024/03/14 13:15:33;;;;;;;;;;;;;;;;;;4993700;28;19910;-59
2024/03/14 13:17:59;;;;;;;;;;;;;;;;;;4993861;28;20351;-59
2024/03/14 13:20:25;;;;;;;;;;;;;;;;;;4992286;28;19916;-60
2024/03/14 13:22:52;;;;;;;;;;;;;;;;;;4992199;28;20352;-59
2024/03/14 13:25:18;;;;;;;;;;;;;;;;;;4994368;28;20012;-59
2024/03/14 13:27:45;;;;;;;;;;;;;;;;;;5004182;28;19916;-57
2024/03/14 13:30:12;;;;;;;;;;;;;;;;;;5011420;28;19913;-60
2024/03/14 13:32:39;;;;;;;;;;;;;;;;;;5004685;28;19909;-59
2024/03/14 13:35:10;;;;;;;;;;;;;;;;;;4993605;28;20318;-59
2024/03/14 13:37:36;;;;;;;;;;;;;;;;;;4999795;28;20398;-59
2024/03/14 13:40:07;;;;;;;;;;;;;;;;;;5000097;28;19910;-59
2024/03/14 13:42:34;;;;;;;;;;;;;;;;;;5011850;28;19909;-60
2024/03/14 13:45:00;;;;;;;;;;;;;;;;;;5004052;28;19956;-60
2024/03/14 13:47:26;;;;;;;;;;;;;;;;;;4993195;28;19914;-60
2024/03/14 13:49:52;;;;;;;;;;;;;;;;;;4991866;28;19917;-59
2024/03/14 13:52:18;;;;;;;;;;;;;;;;;;4991069;28;20462;-60
2024/03/14 13:54:46;;;;;;;;;;;;;;;;;;4999501;28;20005;-60
2024/03/14 13:57:14;;;;;;;;;;;;;;;;;;5010262;28;19909;-60
2024/03/14 13:59:46;;;;;;;;;;;;;;;;;;5000453;28;19916;-47
2024/03/14 14:02:13;;;;;;;;;;;;;;;;;;5007906;28;19909;-56
2024/03/14 14:04:39;;;;;;;;;;;;;;;;;;5011049;28;19920;-53
2024/03/14 14:07:05;;;;;;;;;;;;;;;;;;5012401;28;19909;-57
2024/03/14 14:09:33;;;;;;;;;;;;;;;;;;5008343;28;19964;-55
2024/03/14 14:11:59;;;;;;;;;;;;;;;;;;5000576;28;19917;-54
2024/03/14 14:14:26;;;;;;;;;;;;;;;;;;5012701;28;19909;-58
2024/03/14 14:16:52;;;;;;;;;;;;;;;;;;5012390;28;19937;-57
2024/03/14 14:19:20;;;;;;;;;;;;;;;;;;5012155;28;19913;-55
2024/03/14 14:21:47;;;;;;;;;;;;;;;;;;5010345;28;19956;-56
2024/03/14 14:24:13;;;;;;;;;;;;;;;;;;5012506;28;19913;-56
2024/03/14 14:26:39;;;;;;;;;;;;;;;;;;5011599;28;19909;-51
2024/03/14 14:29:07;;;;;;;;;;;;;;;;;;5000004;28;20351;-56
2024/03/14 14:31:33;;;;;;;;;;;;;;;;;;5005512;28;19909;-54
2024/03/14 14:34:00;;;;;;;;;;;;;;;;;;5013222;28;19921;-56
2024/03/14 14:36:26;;;;;;;;;;;;;;;;;;5002476;28;19917;-60
2024/03/14 14:38:52;;;;;;;;;;;;;;;;;;5011820;28;19917;-62
2024/03/14 14:41:19;;;;;;;;;;;;;;;;;;5013293;28;20358;-56
2024/03/14 14:43:45;;;;;;;;;;;;;;;;;;5003792;28;19956;-55
2024/03/14 14:46:11;;;;;;;;;;;;;;;;;;5003845;28;19956;-57
2024/03/14 14:48:37;;;;;;;;;;;;;;;;;;5011428;28;19913;-58
2024/03/14 14:51:03;;;;;;;;;;;;;;;;;;5007223;28;19913;-58
2024/03/14 14:53:29;;;;;;;;;;;;;;;;;;5011934;28;19909;-57
2024/03/14 14:55:57;;;;;;;;;;;;;;;;;;5010668;28;19948;-54
2024/03/14 14:58:23;;;;;;;;;;;;;;;;;;5010926;28;19909;-57
2024/03/14 15:00:49;;;;;;;;;;;;;;;;;;4994278;28;19971;-58
2024/03/14 15:03:17;;;;;;;;;;;;;;;;;;5010814;28;19975;-55
2024/03/14 15:05:43;;;;;;;;;;;;;;;;;;5011511;28;20028;-52
2024/03/14 15:08:10;;;;;;;;;;;;;;;;;;5011847;28;19971;-60
2024/03/14 15:10:37;;;;;;;;;;;;;;;;;;5011920;28;19917;-57
2024/03/14 15:13:04;;;;;;;;;;;;;;;;;;5010169;28;20342;-50
2024/03/14 15:15:32;;;;;;;;;;;;;;;;;;5009990;28;19909;-53
2024/03/14 15:17:59;;;;;;;;;;;;;;;;;;5011607;28;19916;-56
2024/03/14 15:20:25;;;;;;;;;;;;;;;;;;5010544;28;20000;-55
2024/03/14 15:22:52;;;;;;;;;;;;;;;;;;5011765;28;20339;-55
2024/03/14 15:25:20;;;;;;;;;;;;;;;;;;5008639;28;19914;-56
2024/03/14 15:27:46;;;;;;;;;;;;;;;;;;5008555;28;20067;-53
2024/03/14 15:30:12;;;;;;;;;;;;;;;;;;5011157;28;19916;-53
2024/03/14 15:32:39;;;;;;;;;;;;;;;;;;5010035;28;19913;-55
2024/03/14 15:35:05;;;;;;;;;;;;;;;;;;5008130;28;20352;-53
2024/03/14 15:37:32;;;;;;;;;;;;;;;;;;5011400;28;19917;-58
2024/03/14 15:39:58;;;;;;;;;;;;;;;;;;4994189;28;19940;-58
2024/03/14 15:42:24;;;;;;;;;;;;;;;;;;5012091;28;19921;-58
2024/03/14 15:44:50;;;;;;;;;;;;;;;;;;5012077;28;19910;-58
2024/03/14 15:47:17;;;;;;;;;;;;;;;;;;5012209;28;19909;-59
2024/03/14 15:49:43;;;;;;;;;;;;;;;;;;5007052;28;19910;-58
2024/03/14 15:52:09;;;;;;;;;;;;;;;;;;5010316;28;19909;-58
2024/03/14 15:54:35;;;;;;;;;;;;;;;;;;5006314;28;19910;-58
2024/03/14 15:57:01;;;;;;;;;;;;;;;;;;5010191;28;19910;-58
2024/03/14 15:59:27;;;;;;;;;;;;;;;;;;5008418;28;19913;-58
2024/03/14 16:01:55;;;;;;;;;;;;;;;;;;5007183;28;19910;-58
2024/03/14 16:04:22;;;;;;;;;;;;;;;;;;5010723;28;19944;-56
2024/03/14 16:06:48;;;;;;;;;;;;;;;;;;5008363;28;19919;-59
2024/03/14 16:09:14;;;;;;;;;;;;;;;;;;5011096;28;19917;-58
2024/03/14 16:11:43;;;;;;;;;;;;;;;;;;5010840;28;20105;-58
2024/03/14 16:14:09;;;;;;;;;;;;;;;;;;5010567;28;20346;-58
2024/03/14 16:16:36;;;;;;;;;;;;;;;;;;5011317;28;19910;-58
2024/03/14 16:19:05;;;;;;;;;;;;;;;;;;5011811;28;19916;-58
2024/03/14 16:21:32;;;;;;;;;;;;;;;;;;5003312;28;19917;-59
2024/03/14 16:24:01;;;;;;;;;;;;;;;;;;5002025;28;19945;-59
2024/03/14 16:26:28;;;;;;;;;;;;;;;;;;4995362;28;20380;-60
2024/03/14 16:28:54;;;;;;;;;;;;;;;;;;5003015;28;20004;-60
2024/03/14 16:31:22;;;;;;;;;;;;;;;;;;4975849;28;19909;-60
2024/03/14 16:33:48;;;;;;;;;;;;;;;;;;5001274;28;19956;-60
2024/03/14 16:36:14;;;;;;;;;;;;;;;;;;5008563;28;19909;-60
2024/03/14 16:38:40;;;;;;;;;;;;;;;;;;5007678;28;19963;-57
2024/03/14 16:41:06;;;;;;;;;;;;;;;;;;4993022;28;19916;-57
2024/03/14 16:43:33;;;;;;;;;;;;;;;;;;4994416;28;19916;-57
2024/03/14 16:46:03;;;;;;;;;;;;;;;;;;5009949;28;19913;-57
2024/03/14 16:48:29;;;;;;;;;;;;;;;;;;5013817;28;20471;-58
2024/03/14 16:50:55;;;;;;;;;;;;;;;;;;5015060;28;19928;-57